Time;durP1;ratioP1;P1;durP2;ratioP2;P2;SDS_P1;SDS_P2;PMS_P1;PMS_P2;Temp;Humidity;BMP_temperature;BMP_pressure;BME280_temperature;BME280_humidity;BME280_pressure;Samples;Min_cycle;Max_cycle;Signal;HPM_P1;HPM_P2
2023/08/04 00:01:26;;;;;;;;;;;;;;;;;;5091098;28;987;-62
2023/08/04 00:03:52;;;;;;;;;;;;;;;;;;5090257;28;823;-61
2023/08/04 00:06:17;;;;;;;;;;;;;;;;;;5091400;28;789;-62
2023/08/04 00:08:42;;;;;;;;;;;;;;;;;;5091579;28;824;-61
2023/08/04 00:11:08;;;;;;;;;;;;;;;;;;5091154;28;1091;-61
2023/08/04 00:13:33;;;;;;;;;;;;;;;;;;5091146;28;1956;-62
2023/08/04 00:16:05;;;;;;;;;;;;;;;;;;5071930;28;1145;-61
2023/08/04 00:18:30;;;;;;;;;;;;;;;;;;5091258;28;848;-61
2023/08/04 00:20:55;;;;;;;;;;;;;;;;;;5090617;28;911;-61
2023/08/04 00:23:21;;;;;;;;;;;;;;;;;;5090710;28;967;-61
2023/08/04 00:25:46;;;;;;;;;;;;;;;;;;5090698;28;841;-61
2023/08/04 00:28:11;;;;;;;;;;;;;;;;;;5090770;28;833;-60
2023/08/04 00:30:36;;;;;;;;;;;;;;;;;;5090196;28;900;-60
2023/08/04 00:33:02;;;;;;;;;;;;;;;;;;5090966;28;947;-60
2023/08/04 00:35:27;;;;;;;;;;;;;;;;;;5092685;28;1922;-61
2023/08/04 00:37:52;;;;;;;;;;;;;;;;;;5076480;28;884;-61
2023/08/04 00:40:18;;;;;;;;;;;;;;;;;;5094760;28;978;-61
2023/08/04 00:42:43;;;;;;;;;;;;;;;;;;5094120;28;900;-61
2023/08/04 00:45:08;;;;;;;;;;;;;;;;;;5094083;28;1003;-61
2023/08/04 00:47:35;;;;;;;;;;;;;;;;;;5094607;28;979;-61
2023/08/04 00:50:02;;;;;;;;;;;;;;;;;;5094360;28;906;-60
2023/08/04 00:52:28;;;;;;;;;;;;;;;;;;5094840;28;816;-61
2023/08/04 00:54:53;;;;;;;;;;;;;;;;;;5093774;28;1970;-61
2023/08/04 00:57:18;;;;;;;;;;;;;;;;;;5094474;28;987;-61
2023/08/04 00:59:44;;;;;;;;;;;;;;;;;;5093897;28;924;-61
2023/08/04 01:02:09;;;;;;;;;;;;;;;;;;5094043;28;927;-61
2023/08/04 01:04:34;;;;;;;;;;;;;;;;;;5093847;28;873;-62
2023/08/04 01:07:21;;;;;;;;;;;;;;;;;;5093398;28;893;-62
2023/08/04 01:09:56;;;;;;;;;;;;;;;;;;5093540;28;992;-61
2023/08/04 01:12:48;;;;;;;;;;;;;;;;;;5094146;28;928;-60
2023/08/04 01:15:13;;;;;;;;;;;;;;;;;;5089754;28;1940;-60
2023/08/04 01:17:39;;;;;;;;;;;;;;;;;;5093479;28;1280;-60
2023/08/04 01:20:04;;;;;;;;;;;;;;;;;;5076153;28;927;-60
2023/08/04 01:22:29;;;;;;;;;;;;;;;;;;5094264;28;891;-60
2023/08/04 01:24:55;;;;;;;;;;;;;;;;;;5094301;28;1206;-61
2023/08/04 01:27:29;;;;;;;;;;;;;;;;;;5094372;28;887;-61
2023/08/04 01:29:55;;;;;;;;;;;;;;;;;;5094248;28;1014;-61
2023/08/04 01:32:20;;;;;;;;;;;;;;;;;;5094273;28;959;-61
2023/08/04 01:34:49;;;;;;;;;;;;;;;;;;5094101;28;1981;-61
2023/08/04 01:37:14;;;;;;;;;;;;;;;;;;5094520;28;773;-61
2023/08/04 01:39:40;;;;;;;;;;;;;;;;;;5076329;28;1174;-61
2023/08/04 01:42:05;;;;;;;;;;;;;;;;;;5094516;28;821;-60
2023/08/04 01:44:30;;;;;;;;;;;;;;;;;;5093999;28;808;-61
2023/08/04 01:46:55;;;;;;;;;;;;;;;;;;5092564;28;864;-60
2023/08/04 01:49:21;;;;;;;;;;;;;;;;;;5093848;28;851;-60
2023/08/04 01:51:46;;;;;;;;;;;;;;;;;;5093119;28;970;-60
2023/08/04 01:54:11;;;;;;;;;;;;;;;;;;5093469;28;1914;-60
2023/08/04 01:56:36;;;;;;;;;;;;;;;;;;5093962;28;879;-60
2023/08/04 01:59:02;;;;;;;;;;;;;;;;;;5093105;28;879;-60
2023/08/04 02:01:27;;;;;;;;;;;;;;;;;;5093154;28;982;-60
2023/08/04 02:03:52;;;;;;;;;;;;;;;;;;5075023;28;1149;-60
2023/08/04 02:06:18;;;;;;;;;;;;;;;;;;5093189;28;754;-60
2023/08/04 02:08:43;;;;;;;;;;;;;;;;;;5092679;28;883;-60
2023/08/04 02:11:08;;;;;;;;;;;;;;;;;;5074313;28;903;-60
2023/08/04 02:13:33;;;;;;;;;;;;;;;;;;5092867;28;1952;-60
2023/08/04 02:15:59;;;;;;;;;;;;;;;;;;5092306;28;942;-60
2023/08/04 02:18:24;;;;;;;;;;;;;;;;;;5092346;28;1159;-60
2023/08/04 02:20:49;;;;;;;;;;;;;;;;;;5092347;28;840;-60
2023/08/04 02:23:14;;;;;;;;;;;;;;;;;;5092422;28;971;-60
2023/08/04 02:25:40;;;;;;;;;;;;;;;;;;5092254;28;919;-60
2023/08/04 02:28:05;;;;;;;;;;;;;;;;;;5092165;28;832;-61
2023/08/04 02:30:30;;;;;;;;;;;;;;;;;;5092354;28;967;-60
2023/08/04 02:32:55;;;;;;;;;;;;;;;;;;5091933;28;820;-60
2023/08/04 02:35:21;;;;;;;;;;;;;;;;;;5073671;28;1973;-61
2023/08/04 02:37:46;;;;;;;;;;;;;;;;;;5091935;28;950;-61
2023/08/04 02:40:12;;;;;;;;;;;;;;;;;;5092109;28;1026;-61
2023/08/04 02:42:37;;;;;;;;;;;;;;;;;;5092300;28;809;-61
2023/08/04 02:45:02;;;;;;;;;;;;;;;;;;5091973;28;793;-61
2023/08/04 02:47:27;;;;;;;;;;;;;;;;;;5091855;28;793;-61
2023/08/04 02:49:53;;;;;;;;;;;;;;;;;;5092080;28;931;-61
2023/08/04 02:52:18;;;;;;;;;;;;;;;;;;5073957;28;836;-60
2023/08/04 02:54:43;;;;;;;;;;;;;;;;;;5091750;28;1901;-60
2023/08/04 02:57:09;;;;;;;;;;;;;;;;;;5091888;28;889;-60
2023/08/04 02:59:34;;;;;;;;;;;;;;;;;;5091757;28;938;-61
2023/08/04 03:01:59;;;;;;;;;;;;;;;;;;5091302;28;908;-61
2023/08/04 03:04:25;;;;;;;;;;;;;;;;;;5091711;28;884;-61
2023/08/04 03:06:50;;;;;;;;;;;;;;;;;;5091620;28;888;-61
2023/08/04 03:09:16;;;;;;;;;;;;;;;;;;5092397;28;872;-61
2023/08/04 03:11:41;;;;;;;;;;;;;;;;;;5073974;28;1493;-61
2023/08/04 03:14:07;;;;;;;;;;;;;;;;;;5092777;28;1960;-60
2023/08/04 03:16:32;;;;;;;;;;;;;;;;;;5091739;28;1164;-61
2023/08/04 03:18:57;;;;;;;;;;;;;;;;;;5092166;28;900;-61
2023/08/04 03:21:23;;;;;;;;;;;;;;;;;;5074554;28;846;-61
2023/08/04 03:23:48;;;;;;;;;;;;;;;;;;5092459;28;907;-60
2023/08/04 03:26:13;;;;;;;;;;;;;;;;;;5092450;28;939;-60
2023/08/04 03:28:38;;;;;;;;;;;;;;;;;;5091603;28;843;-60
2023/08/04 03:31:04;;;;;;;;;;;;;;;;;;5091805;28;943;-60
2023/08/04 03:33:29;;;;;;;;;;;;;;;;;;5091530;28;1964;-60
2023/08/04 03:35:54;;;;;;;;;;;;;;;;;;5091562;28;1020;-60
2023/08/04 03:38:19;;;;;;;;;;;;;;;;;;5091777;28;1014;-61
2023/08/04 03:40:45;;;;;;;;;;;;;;;;;;5091721;28;801;-61
2023/08/04 03:43:10;;;;;;;;;;;;;;;;;;5091229;28;970;-61
2023/08/04 03:45:36;;;;;;;;;;;;;;;;;;5091119;28;836;-61
2023/08/04 03:48:01;;;;;;;;;;;;;;;;;;5091024;28;821;-61
2023/08/04 03:50:26;;;;;;;;;;;;;;;;;;5091297;28;911;-61
2023/08/04 03:52:52;;;;;;;;;;;;;;;;;;5091129;28;1163;-61
2023/08/04 03:55:17;;;;;;;;;;;;;;;;;;5090741;28;1898;-61
2023/08/04 03:57:42;;;;;;;;;;;;;;;;;;5090750;28;932;-62
2023/08/04 04:00:09;;;;;;;;;;;;;;;;;;5091041;28;836;-62
2023/08/04 04:02:34;;;;;;;;;;;;;;;;;;5073200;28;1135;-61
2023/08/04 04:04:59;;;;;;;;;;;;;;;;;;5091048;28;900;-62
2023/08/04 04:07:25;;;;;;;;;;;;;;;;;;5091274;28;951;-61
2023/08/04 04:09:50;;;;;;;;;;;;;;;;;;5091373;28;1051;-62
2023/08/04 04:12:15;;;;;;;;;;;;;;;;;;5095192;28;949;-61
2023/08/04 04:14:40;;;;;;;;;;;;;;;;;;5095016;28;1910;-62
2023/08/04 04:17:06;;;;;;;;;;;;;;;;;;5095249;28;1035;-61
2023/08/04 04:19:31;;;;;;;;;;;;;;;;;;5094867;28;949;-61
2023/08/04 04:21:56;;;;;;;;;;;;;;;;;;5094537;28;836;-62
2023/08/04 04:24:22;;;;;;;;;;;;;;;;;;5094887;28;884;-62
2023/08/04 04:26:47;;;;;;;;;;;;;;;;;;5094409;28;888;-62
2023/08/04 04:29:12;;;;;;;;;;;;;;;;;;5095161;28;813;-61
2023/08/04 04:31:37;;;;;;;;;;;;;;;;;;5094491;28;951;-62
2023/08/04 04:34:03;;;;;;;;;;;;;;;;;;5094567;28;1918;-62
2023/08/04 04:36:28;;;;;;;;;;;;;;;;;;5094538;28;875;-60
2023/08/04 04:38:53;;;;;;;;;;;;;;;;;;5094071;28;895;-59
2023/08/04 04:41:18;;;;;;;;;;;;;;;;;;5094992;28;840;-62
2023/08/04 04:43:44;;;;;;;;;;;;;;;;;;5094316;28;808;-62
2023/08/04 04:46:10;;;;;;;;;;;;;;;;;;5094470;28;914;-62
2023/08/04 04:48:35;;;;;;;;;;;;;;;;;;5094506;28;879;-62
2023/08/04 04:51:00;;;;;;;;;;;;;;;;;;5076173;28;1003;-62
2023/08/04 04:53:26;;;;;;;;;;;;;;;;;;5094549;28;2015;-62
2023/08/04 04:55:51;;;;;;;;;;;;;;;;;;5094250;28;844;-62
2023/08/04 04:58:16;;;;;;;;;;;;;;;;;;5094453;28;872;-63
2023/08/04 05:00:44;;;;;;;;;;;;;;;;;;5093932;28;1275;-62
2023/08/04 05:03:10;;;;;;;;;;;;;;;;;;5093642;28;1160;-62
2023/08/04 05:05:36;;;;;;;;;;;;;;;;;;5094575;28;1189;-62
2023/08/04 05:08:01;;;;;;;;;;;;;;;;;;5094794;28;987;-62
2023/08/04 05:10:27;;;;;;;;;;;;;;;;;;5095399;28;1086;-62
2023/08/04 05:12:52;;;;;;;;;;;;;;;;;;5076579;28;1326;-62
2023/08/04 05:15:18;;;;;;;;;;;;;;;;;;5094728;28;1953;-62
2023/08/04 05:17:44;;;;;;;;;;;;;;;;;;5093899;28;1164;-62
2023/08/04 05:20:09;;;;;;;;;;;;;;;;;;5095623;28;872;-62
2023/08/04 05:22:35;;;;;;;;;;;;;;;;;;5094023;28;932;-62
2023/08/04 05:25:00;;;;;;;;;;;;;;;;;;5093623;28;951;-62
2023/08/04 05:27:25;;;;;;;;;;;;;;;;;;5093840;28;824;-62
2023/08/04 05:29:51;;;;;;;;;;;;;;;;;;5093189;28;891;-62
2023/08/04 05:32:16;;;;;;;;;;;;;;;;;;5094068;28;895;-62
2023/08/04 05:34:41;;;;;;;;;;;;;;;;;;5093108;28;1913;-62
2023/08/04 05:37:06;;;;;;;;;;;;;;;;;;5093363;28;1042;-62
2023/08/04 05:39:32;;;;;;;;;;;;;;;;;;5093342;28;895;-62
2023/08/04 05:41:57;;;;;;;;;;;;;;;;;;5093250;28;927;-62
2023/08/04 05:44:23;;;;;;;;;;;;;;;;;;5075273;28;1102;-62
2023/08/04 05:46:48;;;;;;;;;;;;;;;;;;5092561;28;821;-62
2023/08/04 05:49:13;;;;;;;;;;;;;;;;;;5093420;28;852;-62
2023/08/04 05:51:38;;;;;;;;;;;;;;;;;;5093079;28;836;-60
2023/08/04 05:54:04;;;;;;;;;;;;;;;;;;5092799;28;1901;-61
2023/08/04 05:56:29;;;;;;;;;;;;;;;;;;5092832;28;999;-60
2023/08/04 05:58:54;;;;;;;;;;;;;;;;;;5091479;28;1251;-61
2023/08/04 06:01:19;;;;;;;;;;;;;;;;;;5091900;28;959;-60
2023/08/04 06:03:45;;;;;;;;;;;;;;;;;;5092892;28;919;-60
2023/08/04 06:06:10;;;;;;;;;;;;;;;;;;5074798;28;1232;-60
2023/08/04 06:08:36;;;;;;;;;;;;;;;;;;5092874;28;800;-61
2023/08/04 06:11:01;;;;;;;;;;;;;;;;;;5092675;28;929;-61
2023/08/04 06:13:26;;;;;;;;;;;;;;;;;;5092723;28;1924;-60
2023/08/04 06:15:51;;;;;;;;;;;;;;;;;;5092483;28;859;-61
2023/08/04 06:18:17;;;;;;;;;;;;;;;;;;5092326;28;1310;-61
2023/08/04 06:20:42;;;;;;;;;;;;;;;;;;5092737;28;1064;-62
2023/08/04 06:23:08;;;;;;;;;;;;;;;;;;5092483;28;918;-61
2023/08/04 06:25:33;;;;;;;;;;;;;;;;;;5092408;28;1046;-61
2023/08/04 06:27:58;;;;;;;;;;;;;;;;;;5091486;28;1207;-61
2023/08/04 06:30:25;;;;;;;;;;;;;;;;;;5089883;28;1288;-61
2023/08/04 06:32:50;;;;;;;;;;;;;;;;;;5090492;28;1167;-61
2023/08/04 06:35:15;;;;;;;;;;;;;;;;;;5092870;28;2017;-61
2023/08/04 06:37:41;;;;;;;;;;;;;;;;;;5092153;28;896;-62
2023/08/04 06:40:06;;;;;;;;;;;;;;;;;;5092754;28;922;-61
2023/08/04 06:42:31;;;;;;;;;;;;;;;;;;5092867;28;845;-61
2023/08/04 06:44:57;;;;;;;;;;;;;;;;;;5093587;28;922;-61
2023/08/04 06:47:23;;;;;;;;;;;;;;;;;;5058112;28;1382;-61
2023/08/04 06:49:49;;;;;;;;;;;;;;;;;;5092486;28;883;-61
2023/08/04 06:52:14;;;;;;;;;;;;;;;;;;5074793;28;837;-61
2023/08/04 06:54:39;;;;;;;;;;;;;;;;;;5093318;28;1918;-61
2023/08/04 06:57:05;;;;;;;;;;;;;;;;;;5092783;28;900;-61
2023/08/04 06:59:30;;;;;;;;;;;;;;;;;;5092543;28;928;-61
2023/08/04 07:01:56;;;;;;;;;;;;;;;;;;5092843;28;808;-61
2023/08/04 07:04:21;;;;;;;;;;;;;;;;;;5093275;28;848;-61
2023/08/04 07:06:46;;;;;;;;;;;;;;;;;;5092462;28;999;-69
2023/08/04 07:09:12;;;;;;;;;;;;;;;;;;5074383;28;963;-69
2023/08/04 07:11:37;;;;;;;;;;;;;;;;;;5091868;28;892;-69
2023/08/04 07:14:02;;;;;;;;;;;;;;;;;;5091367;28;1902;-69
2023/08/04 07:16:27;;;;;;;;;;;;;;;;;;5092165;28;1178;-69
2023/08/04 07:18:53;;;;;;;;;;;;;;;;;;5073209;28;1456;-69
2023/08/04 07:21:18;;;;;;;;;;;;;;;;;;5092037;28;852;-69
2023/08/04 07:23:43;;;;;;;;;;;;;;;;;;5073028;28;907;-69
2023/08/04 07:26:09;;;;;;;;;;;;;;;;;;5091350;28;895;-69
2023/08/04 07:28:35;;;;;;;;;;;;;;;;;;5091237;28;836;-69
2023/08/04 07:31:07;;;;;;;;;;;;;;;;;;5091346;28;931;-69
2023/08/04 07:33:32;;;;;;;;;;;;;;;;;;5091875;28;1898;-69
2023/08/04 07:35:58;;;;;;;;;;;;;;;;;;5090942;28;766;-69
2023/08/04 07:38:24;;;;;;;;;;;;;;;;;;5090602;28;884;-69
2023/08/04 07:40:49;;;;;;;;;;;;;;;;;;5088728;28;860;-69
2023/08/04 07:43:15;;;;;;;;;;;;;;;;;;5089885;28;907;-69
2023/08/04 07:45:40;;;;;;;;;;;;;;;;;;5088487;28;998;-69
2023/08/04 07:48:06;;;;;;;;;;;;;;;;;;5088796;28;963;-69
2023/08/04 07:50:31;;;;;;;;;;;;;;;;;;5071671;28;1379;-69
2023/08/04 07:52:56;;;;;;;;;;;;;;;;;;5089803;28;904;-69
2023/08/04 07:55:21;;;;;;;;;;;;;;;;;;5091425;28;1910;-69
2023/08/04 07:57:47;;;;;;;;;;;;;;;;;;5072548;28;1014;-69
2023/08/04 08:00:12;;;;;;;;;;;;;;;;;;5091499;28;962;-69
2023/08/04 08:02:37;;;;;;;;;;;;;;;;;;5091417;28;852;-69
2023/08/04 08:05:03;;;;;;;;;;;;;;;;;;5073336;28;1260;-69
2023/08/04 08:07:28;;;;;;;;;;;;;;;;;;5091569;28;899;-70
2023/08/04 08:09:54;;;;;;;;;;;;;;;;;;5072625;28;932;-69
2023/08/04 08:12:19;;;;;;;;;;;;;;;;;;5091694;28;1101;-69
2023/08/04 08:14:44;;;;;;;;;;;;;;;;;;5091097;28;1984;-69
2023/08/04 08:17:10;;;;;;;;;;;;;;;;;;5090633;28;1144;-69
2023/08/04 08:19:35;;;;;;;;;;;;;;;;;;5091424;28;920;-69
2023/08/04 08:22:00;;;;;;;;;;;;;;;;;;5091815;28;915;-69
2023/08/04 08:24:26;;;;;;;;;;;;;;;;;;5092407;28;844;-69
2023/08/04 08:26:51;;;;;;;;;;;;;;;;;;5091705;28;860;-69
2023/08/04 08:29:16;;;;;;;;;;;;;;;;;;5092061;28;936;-69
2023/08/04 08:31:42;;;;;;;;;;;;;;;;;;5092119;28;801;-69
2023/08/04 08:34:07;;;;;;;;;;;;;;;;;;5073172;28;1906;-69
2023/08/04 08:36:32;;;;;;;;;;;;;;;;;;5091694;28;900;-69
2023/08/04 08:38:58;;;;;;;;;;;;;;;;;;5091510;28;892;-69
2023/08/04 08:41:23;;;;;;;;;;;;;;;;;;5091875;28;1082;-69
2023/08/04 08:43:48;;;;;;;;;;;;;;;;;;5091288;28;900;-69
2023/08/04 08:46:14;;;;;;;;;;;;;;;;;;5073238;28;1232;-69
2023/08/04 08:48:43;;;;;;;;;;;;;;;;;;5091462;28;793;-69
2023/08/04 08:51:12;;;;;;;;;;;;;;;;;;5090593;28;794;-70
2023/08/04 08:53:38;;;;;;;;;;;;;;;;;;5090908;28;1957;-69
2023/08/04 08:56:04;;;;;;;;;;;;;;;;;;5092058;28;986;-69
2023/08/04 08:58:30;;;;;;;;;;;;;;;;;;5094616;28;824;-69
2023/08/04 09:00:55;;;;;;;;;;;;;;;;;;5094463;28;951;-69
2023/08/04 09:03:21;;;;;;;;;;;;;;;;;;5094213;28;761;-69
2023/08/04 09:05:46;;;;;;;;;;;;;;;;;;5094191;28;935;-69
2023/08/04 09:08:11;;;;;;;;;;;;;;;;;;5094061;28;914;-69
2023/08/04 09:10:38;;;;;;;;;;;;;;;;;;5095315;28;1029;-71
2023/08/04 09:13:07;;;;;;;;;;;;;;;;;;5095415;28;870;-71
2023/08/04 09:15:48;;;;;;;;;;;;;;;;;;5094614;28;1902;-71
2023/08/04 09:18:33;;;;;;;;;;;;;;;;;;5093570;28;1175;-71
2023/08/04 09:20:59;;;;;;;;;;;;;;;;;;5093663;28;852;-71
2023/08/04 09:23:25;;;;;;;;;;;;;;;;;;5094030;28;880;-71
2023/08/04 09:25:50;;;;;;;;;;;;;;;;;;5075286;28;1258;-71
2023/08/04 09:28:16;;;;;;;;;;;;;;;;;;5094060;28;765;-71
2023/08/04 09:30:58;;;;;;;;;;;;;;;;;;5093843;28;866;-71
2023/08/04 09:33:24;;;;;;;;;;;;;;;;;;5093918;28;758;-71
2023/08/04 09:35:49;;;;;;;;;;;;;;;;;;5074891;28;1914;-71
2023/08/04 09:38:15;;;;;;;;;;;;;;;;;;5093911;28;773;-71
2023/08/04 09:40:40;;;;;;;;;;;;;;;;;;5094064;28;773;-72
2023/08/04 09:43:05;;;;;;;;;;;;;;;;;;5075112;28;1250;-71
2023/08/04 09:45:32;;;;;;;;;;;;;;;;;;5073989;28;1373;-68
2023/08/04 09:47:57;;;;;;;;;;;;;;;;;;5091417;28;1208;-68
2023/08/04 09:50:23;;;;;;;;;;;;;;;;;;5073812;28;1216;-70
2023/08/04 09:53:00;;;;;;;;;;;;;;;;;;5088304;28;1200;-70
2023/08/04 09:55:26;;;;;;;;;;;;;;;;;;5091189;28;1910;-70
2023/08/04 09:57:51;;;;;;;;;;;;;;;;;;5093182;28;901;-70
2023/08/04 10:00:16;;;;;;;;;;;;;;;;;;5075967;28;1047;-70
2023/08/04 10:02:42;;;;;;;;;;;;;;;;;;5094253;28;848;-70
2023/08/04 10:05:07;;;;;;;;;;;;;;;;;;5093983;28;848;-70
2023/08/04 10:07:33;;;;;;;;;;;;;;;;;;5093344;28;915;-70
2023/08/04 10:10:00;;;;;;;;;;;;;;;;;;5093665;28;851;-70
2023/08/04 10:12:26;;;;;;;;;;;;;;;;;;5094222;28;810;-70
2023/08/04 10:14:52;;;;;;;;;;;;;;;;;;5091796;28;1973;-70
2023/08/04 10:17:18;;;;;;;;;;;;;;;;;;5089318;28;1220;-70
2023/08/04 10:19:43;;;;;;;;;;;;;;;;;;5090327;28;1187;-70
2023/08/04 10:22:10;;;;;;;;;;;;;;;;;;5058361;28;1378;-70
2023/08/04 10:24:37;;;;;;;;;;;;;;;;;;5093840;28;920;-70
2023/08/04 10:27:11;;;;;;;;;;;;;;;;;;5074841;28;865;-70
2023/08/04 10:29:36;;;;;;;;;;;;;;;;;;5075063;28;1090;-70
2023/08/04 10:32:07;;;;;;;;;;;;;;;;;;5092612;28;995;-70
2023/08/04 10:34:33;;;;;;;;;;;;;;;;;;5093530;28;1915;-70
2023/08/04 10:37:09;;;;;;;;;;;;;;;;;;5073841;28;1306;-70
2023/08/04 10:39:44;;;;;;;;;;;;;;;;;;5092339;28;915;-70
2023/08/04 10:42:09;;;;;;;;;;;;;;;;;;5092303;28;900;-70
2023/08/04 10:44:53;;;;;;;;;;;;;;;;;;5092268;28;896;-70
2023/08/04 10:47:29;;;;;;;;;;;;;;;;;;5092344;28;837;-70
2023/08/04 10:49:55;;;;;;;;;;;;;;;;;;5073978;28;1072;-70
2023/08/04 10:52:20;;;;;;;;;;;;;;;;;;5057355;28;1159;-70
2023/08/04 10:54:46;;;;;;;;;;;;;;;;;;5073981;28;1898;-70
2023/08/04 10:57:33;;;;;;;;;;;;;;;;;;5092094;28;915;-72
2023/08/04 10:59:58;;;;;;;;;;;;;;;;;;5091946;28;899;-71
2023/08/04 11:02:24;;;;;;;;;;;;;;;;;;5092518;28;789;-71
2023/08/04 11:04:53;;;;;;;;;;;;;;;;;;5091671;28;1023;-71
2023/08/04 11:07:19;;;;;;;;;;;;;;;;;;5092006;28;812;-72
2023/08/04 11:09:45;;;;;;;;;;;;;;;;;;5092258;28;975;-71
2023/08/04 11:12:11;;;;;;;;;;;;;;;;;;5091308;28;891;-71
2023/08/04 11:14:37;;;;;;;;;;;;;;;;;;5091831;28;1933;-71
2023/08/04 11:17:03;;;;;;;;;;;;;;;;;;5091082;28;1071;-71
2023/08/04 11:19:28;;;;;;;;;;;;;;;;;;5091329;28;1018;-71
2023/08/04 11:21:54;;;;;;;;;;;;;;;;;;5091566;28;832;-71
2023/08/04 11:24:25;;;;;;;;;;;;;;;;;;5091631;28;903;-71
2023/08/04 11:26:51;;;;;;;;;;;;;;;;;;5091306;28;833;-70
2023/08/04 11:29:16;;;;;;;;;;;;;;;;;;5091959;28;860;-71
2023/08/04 11:31:42;;;;;;;;;;;;;;;;;;5092084;28;935;-71
2023/08/04 11:34:14;;;;;;;;;;;;;;;;;;5073148;28;1972;-71
2023/08/04 11:36:39;;;;;;;;;;;;;;;;;;5073256;28;939;-71
2023/08/04 11:39:05;;;;;;;;;;;;;;;;;;5072956;28;1240;-71
2023/08/04 11:41:30;;;;;;;;;;;;;;;;;;5091899;28;1057;-71
2023/08/04 11:43:55;;;;;;;;;;;;;;;;;;5091753;28;856;-71
2023/08/04 11:46:20;;;;;;;;;;;;;;;;;;5073887;28;1767;-71
2023/08/04 11:48:46;;;;;;;;;;;;;;;;;;5073608;28;808;-71
2023/08/04 11:51:12;;;;;;;;;;;;;;;;;;5091323;28;893;-71
2023/08/04 11:53:38;;;;;;;;;;;;;;;;;;5092025;28;821;-71
2023/08/04 11:56:04;;;;;;;;;;;;;;;;;;5072581;28;1902;-71
2023/08/04 11:58:36;;;;;;;;;;;;;;;;;;5073736;28;936;-70
2023/08/04 12:01:02;;;;;;;;;;;;;;;;;;5073139;28;887;-71
2023/08/04 12:03:48;;;;;;;;;;;;;;;;;;5092426;28;782;-70
2023/08/04 12:06:17;;;;;;;;;;;;;;;;;;5073951;28;1298;-71
2023/08/04 12:08:47;;;;;;;;;;;;;;;;;;5073712;28;840;-70
2023/08/04 12:11:12;;;;;;;;;;;;;;;;;;5091864;28;973;-71
2023/08/04 12:13:38;;;;;;;;;;;;;;;;;;5091901;28;796;-71
2023/08/04 12:16:06;;;;;;;;;;;;;;;;;;5091469;28;1901;-70
2023/08/04 12:18:31;;;;;;;;;;;;;;;;;;5073778;28;1223;-71
2023/08/04 12:20:57;;;;;;;;;;;;;;;;;;5074339;28;877;-71
2023/08/04 12:23:22;;;;;;;;;;;;;;;;;;5055858;28;1168;-71
2023/08/04 12:25:48;;;;;;;;;;;;;;;;;;5091057;28;884;-71
2023/08/04 12:28:13;;;;;;;;;;;;;;;;;;5090692;28;887;-71
2023/08/04 12:30:38;;;;;;;;;;;;;;;;;;5072914;28;1197;-71
2023/08/04 12:33:04;;;;;;;;;;;;;;;;;;5094664;28;797;-71
2023/08/04 12:35:29;;;;;;;;;;;;;;;;;;5095065;28;1980;-71
2023/08/04 12:37:54;;;;;;;;;;;;;;;;;;5095594;28;935;-70
2023/08/04 12:40:20;;;;;;;;;;;;;;;;;;5076554;28;935;-71
2023/08/04 12:42:45;;;;;;;;;;;;;;;;;;5095339;28;1030;-71
2023/08/04 12:45:10;;;;;;;;;;;;;;;;;;5094473;28;982;-71
2023/08/04 12:47:35;;;;;;;;;;;;;;;;;;5095177;28;911;-71
2023/08/04 12:50:01;;;;;;;;;;;;;;;;;;5094137;28;883;-71
2023/08/04 12:52:26;;;;;;;;;;;;;;;;;;5095264;28;830;-71
2023/08/04 12:54:51;;;;;;;;;;;;;;;;;;5094410;28;1897;-71
2023/08/04 12:57:16;;;;;;;;;;;;;;;;;;5076219;28;735;-71
2023/08/04 12:59:42;;;;;;;;;;;;;;;;;;5094495;28;888;-71
2023/08/04 13:02:07;;;;;;;;;;;;;;;;;;5093879;28;836;-71
2023/08/04 13:04:33;;;;;;;;;;;;;;;;;;5076253;28;2106;-71
2023/08/04 13:06:59;;;;;;;;;;;;;;;;;;5093957;28;870;-71
2023/08/04 13:09:24;;;;;;;;;;;;;;;;;;5094434;28;881;-71
2023/08/04 13:11:49;;;;;;;;;;;;;;;;;;5094253;28;927;-71
2023/08/04 13:14:15;;;;;;;;;;;;;;;;;;5093815;28;1917;-71
2023/08/04 13:16:40;;;;;;;;;;;;;;;;;;5094543;28;825;-71
2023/08/04 13:19:06;;;;;;;;;;;;;;;;;;5093578;28;1231;-71
2023/08/04 13:21:31;;;;;;;;;;;;;;;;;;5075862;28;912;-71
2023/08/04 13:23:56;;;;;;;;;;;;;;;;;;5076080;28;880;-71
2023/08/04 13:26:22;;;;;;;;;;;;;;;;;;5093822;28;844;-71
2023/08/04 13:28:47;;;;;;;;;;;;;;;;;;5094059;28;840;-71
2023/08/04 13:31:12;;;;;;;;;;;;;;;;;;5093867;28;970;-72
2023/08/04 13:33:38;;;;;;;;;;;;;;;;;;5094400;28;821;-72
2023/08/04 13:36:03;;;;;;;;;;;;;;;;;;5093137;28;1898;-71
2023/08/04 13:38:29;;;;;;;;;;;;;;;;;;5093484;28;821;-71
2023/08/04 13:40:54;;;;;;;;;;;;;;;;;;5093203;28;770;-71
2023/08/04 13:43:21;;;;;;;;;;;;;;;;;;5093747;28;824;-71
2023/08/04 13:45:47;;;;;;;;;;;;;;;;;;5075133;28;1321;-71
2023/08/04 13:48:12;;;;;;;;;;;;;;;;;;5093532;28;1030;-71
2023/08/04 13:50:38;;;;;;;;;;;;;;;;;;5093880;28;1237;-71
2023/08/04 13:53:03;;;;;;;;;;;;;;;;;;5093974;28;840;-71
2023/08/04 13:55:28;;;;;;;;;;;;;;;;;;5075603;28;1953;-72
2023/08/04 13:57:53;;;;;;;;;;;;;;;;;;5075897;28;1195;-72
2023/08/04 14:00:19;;;;;;;;;;;;;;;;;;5093986;28;828;-71
2023/08/04 14:02:44;;;;;;;;;;;;;;;;;;5076008;28;896;-71
2023/08/04 14:05:09;;;;;;;;;;;;;;;;;;5093744;28;852;-71
2023/08/04 14:07:37;;;;;;;;;;;;;;;;;;5075333;28;1342;-71
2023/08/04 14:10:03;;;;;;;;;;;;;;;;;;5075025;28;926;-71
2023/08/04 14:12:31;;;;;;;;;;;;;;;;;;5090022;28;1199;-71
2023/08/04 14:14:56;;;;;;;;;;;;;;;;;;5070880;28;1957;-71
2023/08/04 14:17:21;;;;;;;;;;;;;;;;;;5090406;28;1182;-71
2023/08/04 14:19:47;;;;;;;;;;;;;;;;;;5089953;28;1164;-71
2023/08/04 14:22:12;;;;;;;;;;;;;;;;;;5091065;28;1208;-71
2023/08/04 14:24:37;;;;;;;;;;;;;;;;;;5092641;28;848;-71
2023/08/04 14:27:04;;;;;;;;;;;;;;;;;;5092268;28;973;-71
2023/08/04 14:29:29;;;;;;;;;;;;;;;;;;5091823;28;1215;-71
2023/08/04 14:31:54;;;;;;;;;;;;;;;;;;5073591;28;1099;-72
2023/08/04 14:34:20;;;;;;;;;;;;;;;;;;5074167;28;1965;-72
2023/08/04 14:36:45;;;;;;;;;;;;;;;;;;5092830;28;998;-71
2023/08/04 14:39:10;;;;;;;;;;;;;;;;;;5092786;28;903;-71
2023/08/04 14:41:35;;;;;;;;;;;;;;;;;;5092699;28;919;-70
2023/08/04 14:44:01;;;;;;;;;;;;;;;;;;5092445;28;911;-72
2023/08/04 14:46:26;;;;;;;;;;;;;;;;;;5092814;28;875;-71
2023/08/04 14:48:51;;;;;;;;;;;;;;;;;;5093575;28;978;-71
2023/08/04 14:51:16;;;;;;;;;;;;;;;;;;5093782;28;887;-71
2023/08/04 14:53:42;;;;;;;;;;;;;;;;;;5074588;28;920;-71
2023/08/04 14:56:07;;;;;;;;;;;;;;;;;;5094469;28;1930;-71
2023/08/04 14:58:32;;;;;;;;;;;;;;;;;;5092779;28;1034;-71
2023/08/04 15:01:07;;;;;;;;;;;;;;;;;;5093184;28;868;-71
2023/08/04 15:03:36;;;;;;;;;;;;;;;;;;5095360;28;789;-71
2023/08/04 15:06:11;;;;;;;;;;;;;;;;;;5095815;28;903;-71
2023/08/04 15:08:37;;;;;;;;;;;;;;;;;;5094799;28;943;-71
2023/08/04 15:11:03;;;;;;;;;;;;;;;;;;5095322;28;909;-71
2023/08/04 15:13:28;;;;;;;;;;;;;;;;;;5092321;28;975;-72
2023/08/04 15:15:54;;;;;;;;;;;;;;;;;;5092699;28;1890;-71
2023/08/04 15:18:19;;;;;;;;;;;;;;;;;;5091960;28;1247;-72
2023/08/04 15:20:44;;;;;;;;;;;;;;;;;;5091786;28;892;-72
2023/08/04 15:23:10;;;;;;;;;;;;;;;;;;5073878;28;881;-71
2023/08/04 15:25:35;;;;;;;;;;;;;;;;;;5073465;28;1183;-72
2023/08/04 15:28:00;;;;;;;;;;;;;;;;;;5091820;28;836;-72
2023/08/04 15:30:25;;;;;;;;;;;;;;;;;;5092800;28;923;-72
2023/08/04 15:32:52;;;;;;;;;;;;;;;;;;5092152;28;919;-72
2023/08/04 15:35:21;;;;;;;;;;;;;;;;;;5092253;28;1957;-72
2023/08/04 15:37:46;;;;;;;;;;;;;;;;;;5092083;28;895;-72
2023/08/04 15:40:13;;;;;;;;;;;;;;;;;;5057013;28;1190;-72
2023/08/04 15:42:39;;;;;;;;;;;;;;;;;;5074367;28;904;-72
2023/08/04 15:45:04;;;;;;;;;;;;;;;;;;5091822;28;946;-72
2023/08/04 15:47:30;;;;;;;;;;;;;;;;;;5091233;28;1058;-72
2023/08/04 15:49:55;;;;;;;;;;;;;;;;;;5091063;28;935;-72
2023/08/04 15:52:20;;;;;;;;;;;;;;;;;;5091404;28;900;-72
2023/08/04 15:54:45;;;;;;;;;;;;;;;;;;5091142;28;1901;-72
2023/08/04 15:57:11;;;;;;;;;;;;;;;;;;5091079;28;912;-71
2023/08/04 15:59:36;;;;;;;;;;;;;;;;;;5091098;28;991;-71
2023/08/04 16:02:01;;;;;;;;;;;;;;;;;;5090760;28;924;-71
2023/08/04 16:04:27;;;;;;;;;;;;;;;;;;5091686;28;797;-72
2023/08/04 16:06:52;;;;;;;;;;;;;;;;;;5075522;28;1262;-71
2023/08/04 16:09:18;;;;;;;;;;;;;;;;;;5094840;28;872;-71
2023/08/04 16:11:43;;;;;;;;;;;;;;;;;;5094703;28;997;-71
2023/08/04 16:14:08;;;;;;;;;;;;;;;;;;5095172;28;1890;-71
2023/08/04 16:16:33;;;;;;;;;;;;;;;;;;5095404;28;873;-72
2023/08/04 16:18:59;;;;;;;;;;;;;;;;;;5094999;28;1182;-72
2023/08/04 16:21:26;;;;;;;;;;;;;;;;;;5095713;28;991;-71
2023/08/04 16:23:51;;;;;;;;;;;;;;;;;;5095151;28;959;-72
2023/08/04 16:26:16;;;;;;;;;;;;;;;;;;5095216;28;961;-72
2023/08/04 16:28:42;;;;;;;;;;;;;;;;;;5095138;28;773;-72
2023/08/04 16:31:07;;;;;;;;;;;;;;;;;;5095214;28;911;-72
2023/08/04 16:33:32;;;;;;;;;;;;;;;;;;5095490;28;875;-72
2023/08/04 16:35:58;;;;;;;;;;;;;;;;;;5095058;28;1901;-72
2023/08/04 16:38:23;;;;;;;;;;;;;;;;;;5076186;28;1340;-72
2023/08/04 16:40:53;;;;;;;;;;;;;;;;;;5095317;28;923;-72
2023/08/04 16:43:18;;;;;;;;;;;;;;;;;;5095395;28;907;-71
2023/08/04 16:45:43;;;;;;;;;;;;;;;;;;5077409;28;1038;-73
2023/08/04 16:48:09;;;;;;;;;;;;;;;;;;5076957;28;1167;-73
2023/08/04 16:50:34;;;;;;;;;;;;;;;;;;5094808;28;758;-74
2023/08/04 16:53:00;;;;;;;;;;;;;;;;;;5095600;28;845;-73
2023/08/04 16:55:25;;;;;;;;;;;;;;;;;;5077238;28;1902;-73
2023/08/04 16:57:50;;;;;;;;;;;;;;;;;;5095184;28;884;-73
2023/08/04 17:00:15;;;;;;;;;;;;;;;;;;5076748;28;1308;-73
2023/08/04 17:02:41;;;;;;;;;;;;;;;;;;5094945;28;885;-74
2023/08/04 17:05:07;;;;;;;;;;;;;;;;;;5094579;28;856;-72
2023/08/04 17:07:32;;;;;;;;;;;;;;;;;;5095290;28;852;-73